createdAt,value
2023-03-05T00:00:54.784Z,5.04
2023-03-05T00:05:57.069Z,5.00
2023-03-05T00:11:00.373Z,4.92
2023-03-05T00:16:06.951Z,4.87
2023-03-05T00:21:21.851Z,5.04
2023-03-05T00:26:25.833Z,4.90
2023-03-05T00:31:29.953Z,4.99
2023-03-05T00:36:32.237Z,4.88
2023-03-05T00:41:33.793Z,5.01
2023-03-05T00:46:35.926Z,4.97
2023-03-05T00:51:37.454Z,4.81
2023-03-05T00:56:38.992Z,4.80
2023-03-05T01:01:40.621Z,4.82
2023-03-05T01:06:42.214Z,4.76
2023-03-05T01:11:43.697Z,4.74
2023-03-05T01:16:45.504Z,4.69
2023-03-05T01:21:48.117Z,4.68
2023-03-05T01:26:49.897Z,4.64
2023-03-05T01:31:51.374Z,4.56
2023-03-05T01:36:53.322Z,4.59
2023-03-05T01:41:54.819Z,4.75
2023-03-05T01:46:56.488Z,4.82
2023-03-05T01:52:07.026Z,4.79
2023-03-05T01:57:22.905Z,4.83
2023-03-05T02:02:25.339Z,4.84
2023-03-05T02:07:27.159Z,4.80
2023-03-05T02:12:28.680Z,4.79
2023-03-05T02:17:30.531Z,4.72
2023-03-05T02:22:32.041Z,4.81
2023-03-05T02:27:33.854Z,4.60
2023-03-05T02:32:35.371Z,4.80
2023-03-05T02:37:37.044Z,4.92
2023-03-05T02:42:39.065Z,4.69
2023-03-05T02:47:41.190Z,4.27
2023-03-05T02:52:43.636Z,4.33
2023-03-05T02:57:49.116Z,4.04
2023-03-05T03:02:50.669Z,3.98
2023-03-05T03:07:52.163Z,4.10
2023-03-05T03:12:53.626Z,4.13
2023-03-05T03:17:55.466Z,4.11
2023-03-05T03:22:56.912Z,4.14
2023-03-05T03:27:58.418Z,4.02
2023-03-05T03:32:59.878Z,4.05
2023-03-05T03:38:01.563Z,4.20
2023-03-05T03:43:03.228Z,4.08
2023-03-05T03:48:04.846Z,4.11
2023-03-05T03:53:07.065Z,4.07
2023-03-05T03:58:09.162Z,4.10
2023-03-05T04:03:10.609Z,4.13
2023-03-05T04:08:12.148Z,4.10
2023-03-05T04:13:13.686Z,4.17
2023-03-05T04:18:15.128Z,4.24
2023-03-05T04:23:16.856Z,4.38
2023-03-05T04:28:18.324Z,4.35
2023-03-05T04:33:20.019Z,4.22
2023-03-05T04:38:21.937Z,4.31
2023-03-05T04:43:23.484Z,4.40
2023-03-05T04:48:25.753Z,4.53
2023-03-05T04:53:27.279Z,4.28
2023-03-05T04:58:29.146Z,4.34
2023-03-05T05:03:31.206Z,4.31
2023-03-05T05:08:33.087Z,4.31
2023-03-05T05:13:34.920Z,4.34
2023-03-05T05:18:36.392Z,4.34
2023-03-05T05:23:38.903Z,4.36
2023-03-05T05:28:42.408Z,4.37
2023-03-05T05:33:44.201Z,4.31
2023-03-05T05:38:45.658Z,4.34
2023-03-05T05:43:47.656Z,4.22
2023-03-05T05:48:49.169Z,4.17
2023-03-05T05:53:51.269Z,4.17
2023-03-05T05:58:52.972Z,4.23
2023-03-05T06:03:55.357Z,4.29
2023-03-05T06:08:56.908Z,4.32
2023-03-05T06:13:58.439Z,4.33
2023-03-05T06:19:00.202Z,4.46
2023-03-05T06:24:01.762Z,4.44
2023-03-05T06:29:03.421Z,4.50
2023-03-05T06:34:05.049Z,4.57
2023-03-05T06:39:06.690Z,4.47
2023-03-05T06:44:08.159Z,4.47
2023-03-05T06:49:10.611Z,4.40
2023-03-05T06:54:15.383Z,4.40
2023-03-05T06:59:17.254Z,4.48
2023-03-05T07:04:18.857Z,4.54
2023-03-05T07:09:20.408Z,4.56
2023-03-05T07:14:21.916Z,4.53
2023-03-05T07:19:23.425Z,4.58
2023-03-05T07:24:24.950Z,4.66
2023-03-05T07:29:27.837Z,4.68
2023-03-05T07:34:29.408Z,4.79
2023-03-05T07:39:30.958Z,4.79
2023-03-05T07:44:32.416Z,4.98
2023-03-05T07:49:33.859Z,4.92
2023-03-05T07:54:38.963Z,5.02
2023-03-05T07:59:40.486Z,4.95
2023-03-05T08:04:42.027Z,5.05
2023-03-05T08:09:43.569Z,5.14
2023-03-05T08:14:45.080Z,5.28
2023-03-05T08:19:46.610Z,5.28
2023-03-05T08:24:48.159Z,5.39
2023-03-05T08:29:49.638Z,5.49
2023-03-05T08:34:51.113Z,5.43
2023-03-05T08:39:52.641Z,5.60
2023-03-05T08:44:54.228Z,5.74
2023-03-05T08:49:55.869Z,5.70
2023-03-05T08:54:57.482Z,5.72
2023-03-05T08:59:59.008Z,5.72
2023-03-05T09:05:00.504Z,5.98
2023-03-05T09:10:02.128Z,6.01
2023-03-05T09:15:08.674Z,5.93
2023-03-05T09:20:13.424Z,6.00
2023-03-05T09:25:14.904Z,6.34
2023-03-05T09:30:16.634Z,6.43
2023-03-05T09:35:18.256Z,6.50
2023-03-05T09:40:22.051Z,6.77
2023-03-05T09:45:56.196Z,6.91
2023-03-05T09:51:03.532Z,6.88
2023-03-05T09:56:12.137Z,7.14
2023-03-05T10:01:23.409Z,7.47
2023-03-05T10:06:24.806Z,7.67
2023-03-05T10:11:47.970Z,8.06
2023-03-05T10:17:16.680Z,8.43
2023-03-05T10:22:20.638Z,8.58
2023-03-05T10:27:47.285Z,8.65
2023-03-05T10:32:57.554Z,8.86
2023-03-05T10:38:06.565Z,9.24
2023-03-05T10:43:18.449Z,9.91
2023-03-05T10:48:27.561Z,11.21
2023-03-05T10:53:34.460Z,11.52
2023-03-05T10:58:35.951Z,10.83
2023-03-05T11:04:14.426Z,10.51
2023-03-05T11:09:20.696Z,10.40
2023-03-05T11:14:25.756Z,10.91
2023-03-05T11:19:32.128Z,11.73
2023-03-05T11:24:33.669Z,11.55
2023-03-05T11:29:46.737Z,11.34
2023-03-05T11:34:48.396Z,11.14
2023-03-05T11:40:14.464Z,11.01
2023-03-05T11:45:18.549Z,11.84
2023-03-05T11:50:32.105Z,11.94
2023-03-05T11:55:43.048Z,11.59
2023-03-05T12:00:46.946Z,11.24
2023-03-05T12:05:53.395Z,10.89
2023-03-05T12:10:55.873Z,10.48
2023-03-05T12:16:14.411Z,10.27
2023-03-05T12:21:25.135Z,9.92
2023-03-05T12:26:54.209Z,9.62
2023-03-05T12:31:55.974Z,9.25
2023-03-05T12:36:57.554Z,9.22
2023-03-05T12:41:59.078Z,9.13
2023-03-05T12:47:12.653Z,9.02
2023-03-05T12:52:26.304Z,8.97
2023-03-05T12:57:29.947Z,9.06
2023-03-05T13:02:36.888Z,9.24
2023-03-05T13:07:38.335Z,9.25
2023-03-05T13:12:39.968Z,9.30
2023-03-05T13:17:57.061Z,9.31
2023-03-05T13:23:22.274Z,9.69
2023-03-05T13:28:24.347Z,10.31
2023-03-05T13:33:30.034Z,10.82
2023-03-05T13:38:44.621Z,10.74
2023-03-05T13:43:49.995Z,11.02
2023-03-05T13:48:51.549Z,11.06
2023-03-05T13:53:53.288Z,11.31
2023-03-05T13:58:57.118Z,11.34
2023-03-05T14:04:23.209Z,10.98
2023-03-05T14:09:27.936Z,10.52
2023-03-05T14:14:34.214Z,10.11
2023-03-05T14:19:38.862Z,9.26
2023-03-05T14:24:40.471Z,9.46
2023-03-05T14:29:46.807Z,10.05
2023-03-05T14:34:54.557Z,10.89
2023-03-05T14:39:58.450Z,11.02
2023-03-05T14:45:21.365Z,10.57
2023-03-05T14:50:28.623Z,10.34
2023-03-05T14:55:32.179Z,10.21
2023-03-05T15:00:33.692Z,10.64
2023-03-05T15:05:37.134Z,11.19
2023-03-05T15:10:38.626Z,11.92
2023-03-05T15:15:41.377Z,12.22
2023-03-05T15:20:44.264Z,12.63
2023-03-05T15:25:45.828Z,12.68
2023-03-05T15:30:47.964Z,13.03
2023-03-05T15:35:49.709Z,13.09
2023-03-05T15:40:52.008Z,12.41
2023-03-05T15:45:53.552Z,11.86
2023-03-05T15:50:55.064Z,11.22
2023-03-05T15:55:56.579Z,10.73
2023-03-05T16:00:58.092Z,10.38
2023-03-05T16:05:59.661Z,10.09
2023-03-05T16:11:01.357Z,9.91
2023-03-05T16:16:06.817Z,9.86
2023-03-05T16:21:08.380Z,9.69
2023-03-05T16:26:09.933Z,9.48
2023-03-05T16:31:11.576Z,9.24
2023-03-05T16:36:24.652Z,9.05
2023-03-05T16:41:26.880Z,8.90
2023-03-05T16:46:29.691Z,8.81
2023-03-05T16:51:31.271Z,8.61
2023-03-05T16:56:32.794Z,8.51
2023-03-05T17:01:34.304Z,8.29
2023-03-05T17:06:35.812Z,8.20
2023-03-05T17:11:37.276Z,8.15
2023-03-05T17:16:38.775Z,7.98
2023-03-05T17:21:42.308Z,7.83
2023-03-05T17:26:44.279Z,7.67
2023-03-05T17:31:45.905Z,7.49
2023-03-05T17:36:47.751Z,7.31
2023-03-05T17:41:49.255Z,7.25
2023-03-05T17:46:50.808Z,7.08
2023-03-05T17:51:52.288Z,6.99
2023-03-05T17:56:55.149Z,6.95
2023-03-05T18:01:56.666Z,6.93
2023-03-05T18:06:58.197Z,6.71
2023-03-05T18:11:59.793Z,6.31
2023-03-05T18:17:01.284Z,6.06
2023-03-05T18:22:02.823Z,5.86
2023-03-05T18:27:04.421Z,5.79
2023-03-05T18:32:06.057Z,5.65
2023-03-05T18:37:07.573Z,5.62
2023-03-05T18:42:12.960Z,5.68
2023-03-05T18:47:14.461Z,5.45
2023-03-05T18:52:15.984Z,5.31
2023-03-05T18:57:17.493Z,5.18
2023-03-05T19:02:19.022Z,5.33
2023-03-05T19:07:20.552Z,5.13
2023-03-05T19:12:24.531Z,5.18
2023-03-05T19:17:26.051Z,5.06
2023-03-05T19:22:29.888Z,5.11
2023-03-05T19:27:31.388Z,5.08
2023-03-05T19:32:33.037Z,4.91
2023-03-05T19:37:34.534Z,4.84
2023-03-05T19:42:35.968Z,4.72
2023-03-05T19:47:37.500Z,4.70
2023-03-05T19:52:39.032Z,4.79
2023-03-05T19:57:40.577Z,4.74
2023-03-05T20:02:42.061Z,4.85
2023-03-05T20:07:43.643Z,4.75
2023-03-05T20:12:45.163Z,4.75
2023-03-05T20:17:46.683Z,4.57
2023-03-05T20:22:48.303Z,4.58
2023-03-05T20:27:50.714Z,4.62
2023-03-05T20:32:52.177Z,4.73
2023-03-05T20:37:59.642Z,4.81
2023-03-05T20:43:01.078Z,4.75
2023-03-05T20:48:02.595Z,4.68
2023-03-05T20:53:04.379Z,4.69
2023-03-05T20:58:05.961Z,4.53
2023-03-05T21:03:08.464Z,4.55
2023-03-05T21:08:09.985Z,4.66
2023-03-05T21:13:11.462Z,4.64
2023-03-05T21:18:12.915Z,4.44
2023-03-05T21:23:14.380Z,4.41
2023-03-05T21:28:16.434Z,3.98
2023-03-05T21:33:23.822Z,3.96
2023-03-05T21:38:25.729Z,4.15
2023-03-05T21:43:27.732Z,4.20
2023-03-05T21:48:29.686Z,4.14
2023-03-05T21:53:31.223Z,4.16
2023-03-05T21:58:34.605Z,4.02
2023-03-05T22:03:36.161Z,3.91
2023-03-05T22:08:37.778Z,3.94
2023-03-05T22:13:39.881Z,3.83
2023-03-05T22:18:41.414Z,3.70
2023-03-05T22:23:42.921Z,3.70
2023-03-05T22:28:44.398Z,3.37
2023-03-05T22:33:45.898Z,3.31
2023-03-05T22:38:47.576Z,3.31
2023-03-05T22:43:50.628Z,3.22
2023-03-05T22:48:52.695Z,3.32
2023-03-05T22:53:54.189Z,3.36
2023-03-05T22:58:57.079Z,3.50
2023-03-05T23:03:58.626Z,3.51
2023-03-05T23:09:00.225Z,3.41
2023-03-05T23:14:01.766Z,3.37
2023-03-05T23:19:03.323Z,3.38
2023-03-05T23:24:05.158Z,3.37
2023-03-05T23:29:06.627Z,3.35
2023-03-05T23:34:08.112Z,3.34
2023-03-05T23:39:09.580Z,3.42
2023-03-05T23:44:11.096Z,3.53
2023-03-05T23:49:12.632Z,3.51
2023-03-05T23:54:14.103Z,3.55
2023-03-05T23:59:15.607Z,3.59
